sensor_id;sensor_type;location;lat;lon;timestamp;pressure;altitude;pressure_sealevel;temperature;humidity
74045;BME280;62389;51.412;5.436;2023-07-08T00:00:51;101516.69;;;19.90;63.78
74045;BME280;62389;51.412;5.436;2023-07-08T00:03:17;101510.09;;;19.96;60.34
74045;BME280;62389;51.412;5.436;2023-07-08T00:05:44;101504.84;;;19.83;62.23
74045;BME280;62389;51.412;5.436;2023-07-08T00:08:13;101498.09;;;19.90;60.19
74045;BME280;62389;51.412;5.436;2023-07-08T00:10:38;101500.69;;;19.79;62.98
74045;BME280;62389;51.412;5.436;2023-07-08T00:13:04;101502.00;;;19.74;63.28
74045;BME280;62389;51.412;5.436;2023-07-08T00:15:31;101503.16;;;19.70;63.23
74045;BME280;62389;51.412;5.436;2023-07-08T00:18:00;101490.09;;;19.66;62.95
74045;BME280;62389;51.412;5.436;2023-07-08T00:22:54;101493.28;;;19.59;63.90
74045;BME280;62389;51.412;5.436;2023-07-08T00:25:20;101486.38;;;19.56;63.70
74045;BME280;62389;51.412;5.436;2023-07-08T00:27:46;101486.81;;;19.50;64.93
74045;BME280;62389;51.412;5.436;2023-07-08T00:32:47;101489.16;;;19.42;64.34
74045;BME280;62389;51.412;5.436;2023-07-08T00:35:12;101479.81;;;19.36;64.46
74045;BME280;62389;51.412;5.436;2023-07-08T00:37:38;101484.41;;;19.34;64.38
74045;BME280;62389;51.412;5.436;2023-07-08T00:40:17;101483.75;;;19.31;64.56
74045;BME280;62389;51.412;5.436;2023-07-08T00:42:44;101477.81;;;19.27;65.60
74045;BME280;62389;51.412;5.436;2023-07-08T00:45:40;101477.81;;;19.27;64.33
74045;BME280;62389;51.412;5.436;2023-07-08T00:48:24;101467.44;;;19.24;64.78
74045;BME280;62389;51.412;5.436;2023-07-08T00:50:50;101473.91;;;19.20;65.50
74045;BME280;62389;51.412;5.436;2023-07-08T00:53:31;101475.84;;;19.18;64.59
74045;BME280;62389;51.412;5.436;2023-07-08T00:56:08;101468.19;;;19.13;65.10
74045;BME280;62389;51.412;5.436;2023-07-08T00:58:40;101463.09;;;19.10;65.48
74045;BME280;62389;51.412;5.436;2023-07-08T01:01:07;101467.88;;;19.05;66.51
74045;BME280;62389;51.412;5.436;2023-07-08T01:03:38;101467.13;;;19.03;65.90
74045;BME280;62389;51.412;5.436;2023-07-08T01:06:07;101460.34;;;18.99;66.46
74045;BME280;62389;51.412;5.436;2023-07-08T01:08:36;101472.84;;;18.97;65.50
74045;BME280;62389;51.412;5.436;2023-07-08T01:11:04;101468.81;;;18.92;66.87
74045;BME280;62389;51.412;5.436;2023-07-08T01:13:36;101470.63;;;18.91;65.88
74045;BME280;62389;51.412;5.436;2023-07-08T01:16:04;101464.59;;;18.89;66.11
74045;BME280;62389;51.412;5.436;2023-07-08T01:18:30;101476.16;;;18.88;66.81
74045;BME280;62389;51.412;5.436;2023-07-08T01:21:26;101466.78;;;18.82;66.46
74045;BME280;62389;51.412;5.436;2023-07-08T01:23:45;101464.25;;;18.81;66.62
74045;BME280;62389;51.412;5.436;2023-07-08T01:26:10;101465.41;;;18.77;66.62
74045;BME280;62389;51.412;5.436;2023-07-08T01:28:36;101464.78;;;18.73;67.37
74045;BME280;62389;51.412;5.436;2023-07-08T01:31:01;101461.50;;;18.70;66.81
74045;BME280;62389;51.412;5.436;2023-07-08T01:33:27;101468.75;;;18.66;67.44
74045;BME280;62389;51.412;5.436;2023-07-08T01:35:52;101467.06;;;18.65;67.75
74045;BME280;62389;51.412;5.436;2023-07-08T01:38:22;101459.44;;;18.60;66.66
74045;BME280;62389;51.412;5.436;2023-07-08T01:40:54;101460.50;;;18.58;68.02
74045;BME280;62389;51.412;5.436;2023-07-08T01:43:20;101464.91;;;18.57;67.41
74045;BME280;62389;51.412;5.436;2023-07-08T01:45:47;101462.38;;;18.56;67.15
74045;BME280;62389;51.412;5.436;2023-07-08T01:48:15;101457.31;;;18.53;67.86
74045;BME280;62389;51.412;5.436;2023-07-08T01:50:49;101456.66;;;18.49;67.40
74045;BME280;62389;51.412;5.436;2023-07-08T01:53:18;101457.69;;;18.47;67.39
74045;BME280;62389;51.412;5.436;2023-07-08T01:55:43;101454.00;;;18.49;67.68
74045;BME280;62389;51.412;5.436;2023-07-08T01:58:09;101448.91;;;18.46;67.62
74045;BME280;62389;51.412;5.436;2023-07-08T02:00:34;101444.44;;;18.47;67.57
74045;BME280;62389;51.412;5.436;2023-07-08T02:03:00;101442.09;;;18.42;66.31
74045;BME280;62389;51.412;5.436;2023-07-08T02:05:25;101442.03;;;18.44;67.49
74045;BME280;62389;51.412;5.436;2023-07-08T02:07:50;101428.03;;;18.42;68.14
74045;BME280;62389;51.412;5.436;2023-07-08T02:10:16;101430.66;;;18.42;68.03
74045;BME280;62389;51.412;5.436;2023-07-08T02:12:41;101430.78;;;18.40;68.87
74045;BME280;62389;51.412;5.436;2023-07-08T02:15:08;101427.41;;;18.38;67.96
74045;BME280;62389;51.412;5.436;2023-07-08T02:17:34;101425.69;;;18.37;68.08
74045;BME280;62389;51.412;5.436;2023-07-08T02:19:59;101426.75;;;18.34;67.78
74045;BME280;62389;51.412;5.436;2023-07-08T02:22:25;101411.06;;;18.31;68.66
74045;BME280;62389;51.412;5.436;2023-07-08T02:24:50;101412.84;;;18.31;67.98
74045;BME280;62389;51.412;5.436;2023-07-08T02:27:15;101416.66;;;18.27;68.65
74045;BME280;62389;51.412;5.436;2023-07-08T02:29:41;101410.63;;;18.25;68.16
74045;BME280;62389;51.412;5.436;2023-07-08T02:32:08;101402.13;;;18.20;68.57
74045;BME280;62389;51.412;5.436;2023-07-08T02:34:35;101400.44;;;18.19;68.71
74045;BME280;62389;51.412;5.436;2023-07-08T02:37:01;101397.16;;;18.15;68.13
74045;BME280;62389;51.412;5.436;2023-07-08T02:39:26;101398.28;;;18.11;69.45
74045;BME280;62389;51.412;5.436;2023-07-08T02:41:52;101404.66;;;18.08;68.86
74045;BME280;62389;51.412;5.436;2023-07-08T02:44:17;101403.03;;;18.06;68.67
74045;BME280;62389;51.412;5.436;2023-07-08T02:46:42;101401.47;;;18.03;70.30
74045;BME280;62389;51.412;5.436;2023-07-08T02:49:08;101403.34;;;18.01;70.31
74045;BME280;62389;51.412;5.436;2023-07-08T02:51:33;101411.41;;;18.00;69.63
74045;BME280;62389;51.412;5.436;2023-07-08T02:53:59;101407.16;;;17.97;70.09
74045;BME280;62389;51.412;5.436;2023-07-08T02:56:24;101411.59;;;17.97;69.55
74045;BME280;62389;51.412;5.436;2023-07-08T02:58:52;101408.19;;;17.95;69.82
74045;BME280;62389;51.412;5.436;2023-07-08T03:01:17;101407.47;;;17.93;69.21
74045;BME280;62389;51.412;5.436;2023-07-08T03:03:44;101414.63;;;17.91;69.67
74045;BME280;62389;51.412;5.436;2023-07-08T03:06:10;101421.84;;;17.89;69.27
74045;BME280;62389;51.412;5.436;2023-07-08T03:08:35;101420.88;;;17.90;69.74
74045;BME280;62389;51.412;5.436;2023-07-08T03:11:03;101423.84;;;17.85;70.12
74045;BME280;62389;51.412;5.436;2023-07-08T03:13:30;101428.28;;;17.84;70.02
74045;BME280;62389;51.412;5.436;2023-07-08T03:15:56;101427.63;;;17.81;70.16
74045;BME280;62389;51.412;5.436;2023-07-08T03:18:23;101429.31;;;17.82;69.77
74045;BME280;62389;51.412;5.436;2023-07-08T03:20:57;101428.75;;;17.77;70.79
74045;BME280;62389;51.412;5.436;2023-07-08T03:23:24;101424.41;;;17.76;69.84
74045;BME280;62389;51.412;5.436;2023-07-08T03:25:49;101427.16;;;17.74;70.33
74045;BME280;62389;51.412;5.436;2023-07-08T03:28:15;101429.94;;;17.73;70.49
74045;BME280;62389;51.412;5.436;2023-07-08T03:30:41;101431.16;;;17.67;70.90
74045;BME280;62389;51.412;5.436;2023-07-08T03:33:08;101424.13;;;17.66;71.08
74045;BME280;62389;51.412;5.436;2023-07-08T03:35:33;101434.81;;;17.65;70.77
74045;BME280;62389;51.412;5.436;2023-07-08T03:37:59;101442.75;;;17.65;71.24
74045;BME280;62389;51.412;5.436;2023-07-08T03:40:24;101436.91;;;17.59;71.64
74045;BME280;62389;51.412;5.436;2023-07-08T03:42:50;101434.44;;;17.56;71.89
74045;BME280;62389;51.412;5.436;2023-07-08T03:45:15;101436.34;;;17.54;71.13
74045;BME280;62389;51.412;5.436;2023-07-08T03:47:41;101440.03;;;17.52;71.79
74045;BME280;62389;51.412;5.436;2023-07-08T03:50:26;101440.97;;;17.51;72.32
74045;BME280;62389;51.412;5.436;2023-07-08T03:52:53;101438.25;;;17.52;71.53
74045;BME280;62389;51.412;5.436;2023-07-08T03:55:20;101437.19;;;17.55;72.19
74045;BME280;62389;51.412;5.436;2023-07-08T03:57:45;101439.94;;;17.53;72.65
74045;BME280;62389;51.412;5.436;2023-07-08T04:00:11;101439.94;;;17.53;72.98
74045;BME280;62389;51.412;5.436;2023-07-08T04:02:38;101450.53;;;17.53;73.06
74045;BME280;62389;51.412;5.436;2023-07-08T04:05:04;101441.63;;;17.54;73.47
74045;BME280;62389;51.412;5.436;2023-07-08T04:07:29;101441.63;;;17.54;73.19
74045;BME280;62389;51.412;5.436;2023-07-08T04:09:55;101448.63;;;17.55;73.25
74045;BME280;62389;51.412;5.436;2023-07-08T04:12:20;101440.78;;;17.54;72.65
74045;BME280;62389;51.412;5.436;2023-07-08T04:14:46;101445.25;;;17.53;72.96
74045;BME280;62389;51.412;5.436;2023-07-08T04:17:11;101443.44;;;17.54;73.51
74045;BME280;62389;51.412;5.436;2023-07-08T04:19:37;101451.47;;;17.52;73.44
74045;BME280;62389;51.412;5.436;2023-07-08T04:22:04;101447.59;;;17.58;70.65
74045;BME280;62389;51.412;5.436;2023-07-08T04:24:30;101450.72;;;17.50;73.95
74045;BME280;62389;51.412;5.436;2023-07-08T04:26:56;101451.56;;;17.51;74.62
74045;BME280;62389;51.412;5.436;2023-07-08T04:29:22;101447.31;;;17.48;75.32
74045;BME280;62389;51.412;5.436;2023-07-08T04:31:48;101439.38;;;17.48;74.79
74045;BME280;62389;51.412;5.436;2023-07-08T04:34:15;101434.09;;;17.48;73.62
74045;BME280;62389;51.412;5.436;2023-07-08T04:36:41;101440.22;;;17.49;73.71
74045;BME280;62389;51.412;5.436;2023-07-08T04:39:08;101441.19;;;17.48;74.34
74045;BME280;62389;51.412;5.436;2023-07-08T04:41:35;101431.44;;;17.48;74.59
74045;BME280;62389;51.412;5.436;2023-07-08T04:44:11;101437.59;;;17.49;74.22
74045;BME280;62389;51.412;5.436;2023-07-08T04:46:39;101434.84;;;17.50;75.24
74045;BME280;62389;51.412;5.436;2023-07-08T04:49:06;101439.09;;;17.53;74.63
74045;BME280;62389;51.412;5.436;2023-07-08T04:51:35;101436.34;;;17.54;75.47
74045;BME280;62389;51.412;5.436;2023-07-08T04:54:00;101437.09;;;17.56;75.48
74045;BME280;62389;51.412;5.436;2023-07-08T04:56:35;101445.03;;;17.56;75.11
74045;BME280;62389;51.412;5.436;2023-07-08T04:59:02;101448.50;;;17.57;75.14
74045;BME280;62389;51.412;5.436;2023-07-08T05:01:27;101449.19;;;17.60;75.58
74045;BME280;62389;51.412;5.436;2023-07-08T05:03:53;101460.53;;;17.63;75.70
74045;BME280;62389;51.412;5.436;2023-07-08T05:06:18;101442.09;;;17.61;73.82
74045;BME280;62389;51.412;5.436;2023-07-08T05:08:43;101448.16;;;17.63;75.49
74045;BME280;62389;51.412;5.436;2023-07-08T05:11:09;101446.34;;;17.64;76.69
74045;BME280;62389;51.412;5.436;2023-07-08T05:13:34;101451.44;;;17.67;76.56
74045;BME280;62389;51.412;5.436;2023-07-08T05:15:59;101449.56;;;17.69;75.96
74045;BME280;62389;51.412;5.436;2023-07-08T05:18:25;101448.50;;;17.71;75.81
74045;BME280;62389;51.412;5.436;2023-07-08T05:20:51;101443.19;;;17.71;75.58
74045;BME280;62389;51.412;5.436;2023-07-08T05:23:17;101444.84;;;17.74;75.06
74045;BME280;62389;51.412;5.436;2023-07-08T05:25:42;101449.00;;;17.78;75.43
74045;BME280;62389;51.412;5.436;2023-07-08T05:28:08;101440.78;;;17.82;74.05
74045;BME280;62389;51.412;5.436;2023-07-08T05:30:35;101438.69;;;17.88;74.58
74045;BME280;62389;51.412;5.436;2023-07-08T05:33:00;101435.69;;;17.92;75.29
74045;BME280;62389;51.412;5.436;2023-07-08T05:35:25;101439.13;;;17.94;75.04
74045;BME280;62389;51.412;5.436;2023-07-08T05:37:51;101440.63;;;17.98;75.45
74045;BME280;62389;51.412;5.436;2023-07-08T05:40:16;101445.69;;;18.01;75.53
74045;BME280;62389;51.412;5.436;2023-07-08T05:42:42;101443.06;;;18.01;76.43
74045;BME280;62389;51.412;5.436;2023-07-08T05:45:07;101439.38;;;18.04;75.26
74045;BME280;62389;51.412;5.436;2023-07-08T05:47:36;101439.06;;;18.08;74.49
74045;BME280;62389;51.412;5.436;2023-07-08T05:50:01;101437.94;;;18.13;75.72
74045;BME280;62389;51.412;5.436;2023-07-08T05:52:26;101435.16;;;18.14;76.11
74045;BME280;62389;51.412;5.436;2023-07-08T05:54:52;101434.09;;;18.17;75.21
74045;BME280;62389;51.412;5.436;2023-07-08T05:57:17;101437.50;;;18.19;72.98
74045;BME280;62389;51.412;5.436;2023-07-08T05:59:43;101439.84;;;18.23;75.27
74045;BME280;62389;51.412;5.436;2023-07-08T06:02:10;101451.00;;;18.28;74.10
74045;BME280;62389;51.412;5.436;2023-07-08T06:04:36;101441.78;;;18.34;75.37
74045;BME280;62389;51.412;5.436;2023-07-08T06:07:01;101448.59;;;18.38;75.41
74045;BME280;62389;51.412;5.436;2023-07-08T06:09:27;101447.50;;;18.41;74.28
74045;BME280;62389;51.412;5.436;2023-07-08T06:11:52;101449.13;;;18.43;72.63
74045;BME280;62389;51.412;5.436;2023-07-08T06:14:17;101450.41;;;18.50;73.14
74045;BME280;62389;51.412;5.436;2023-07-08T06:16:43;101449.13;;;18.56;72.61
74045;BME280;62389;51.412;5.436;2023-07-08T06:19:09;101446.19;;;18.60;75.06
74045;BME280;62389;51.412;5.436;2023-07-08T06:21:34;101449.38;;;18.66;75.01
74045;BME280;62389;51.412;5.436;2023-07-08T06:23:59;101454.50;;;18.69;72.51
74045;BME280;62389;51.412;5.436;2023-07-08T06:26:25;101447.16;;;18.72;71.81
74045;BME280;62389;51.412;5.436;2023-07-08T06:28:51;101449.50;;;18.77;71.95
74045;BME280;62389;51.412;5.436;2023-07-08T06:31:16;101453.53;;;18.82;70.24
74045;BME280;62389;51.412;5.436;2023-07-08T06:33:42;101455.78;;;18.88;71.98
74045;BME280;62389;51.412;5.436;2023-07-08T06:36:07;101450.91;;;18.95;70.29
74045;BME280;62389;51.412;5.436;2023-07-08T06:38:33;101457.56;;;19.01;68.86
74045;BME280;62389;51.412;5.436;2023-07-08T06:40:58;101458.75;;;19.09;69.27
74045;BME280;62389;51.412;5.436;2023-07-08T06:43:23;101460.97;;;19.15;69.27
74045;BME280;62389;51.412;5.436;2023-07-08T06:45:49;101455.16;;;19.23;68.90
74045;BME280;62389;51.412;5.436;2023-07-08T06:48:14;101456.50;;;19.29;67.53
74045;BME280;62389;51.412;5.436;2023-07-08T06:50:50;101449.06;;;19.34;70.86
74045;BME280;62389;51.412;5.436;2023-07-08T06:53:15;101444.19;;;19.40;69.55
74045;BME280;62389;51.412;5.436;2023-07-08T06:55:41;101447.34;;;19.46;69.45
74045;BME280;62389;51.412;5.436;2023-07-08T06:58:06;101447.75;;;19.52;69.17
74045;BME280;62389;51.412;5.436;2023-07-08T07:00:32;101444.75;;;19.57;69.72
74045;BME280;62389;51.412;5.436;2023-07-08T07:02:57;101444.38;;;19.63;68.33
74045;BME280;62389;51.412;5.436;2023-07-08T07:05:22;101452.94;;;19.66;68.76
74045;BME280;62389;51.412;5.436;2023-07-08T07:07:48;101443.69;;;19.72;68.15
74045;BME280;62389;51.412;5.436;2023-07-08T07:10:13;101441.56;;;19.77;69.67
74045;BME280;62389;51.412;5.436;2023-07-08T07:12:39;101444.72;;;19.82;67.68
74045;BME280;62389;51.412;5.436;2023-07-08T07:15:05;101443.41;;;19.88;68.29
74045;BME280;62389;51.412;5.436;2023-07-08T07:17:30;101442.16;;;19.94;65.93
74045;BME280;62389;51.412;5.436;2023-07-08T07:19:56;101442.53;;;20.00;68.12
74045;BME280;62389;51.412;5.436;2023-07-08T07:22:21;101451.00;;;20.05;67.65
74045;BME280;62389;51.412;5.436;2023-07-08T07:24:48;101436.94;;;20.16;66.91
74045;BME280;62389;51.412;5.436;2023-07-08T07:27:13;101445.22;;;20.35;65.25
74045;BME280;62389;51.412;5.436;2023-07-08T07:29:47;101447.13;;;20.57;65.66
74045;BME280;62389;51.412;5.436;2023-07-08T07:32:14;101459.00;;;20.76;66.82
74045;BME280;62389;51.412;5.436;2023-07-08T07:34:40;101443.34;;;20.84;65.97
74045;BME280;62389;51.412;5.436;2023-07-08T07:37:06;101444.75;;;20.88;65.09
74045;BME280;62389;51.412;5.436;2023-07-08T07:39:35;101444.66;;;20.89;64.08
74045;BME280;62389;51.412;5.436;2023-07-08T07:42:01;101439.22;;;20.91;64.90
74045;BME280;62389;51.412;5.436;2023-07-08T07:44:26;101443.56;;;20.92;64.27
74045;BME280;62389;51.412;5.436;2023-07-08T07:46:52;101445.16;;;20.94;65.87
74045;BME280;62389;51.412;5.436;2023-07-08T07:49:19;101444.06;;;20.97;64.33
74045;BME280;62389;51.412;5.436;2023-07-08T07:51:44;101446.22;;;21.03;63.93
74045;BME280;62389;51.412;5.436;2023-07-08T07:54:10;101440.56;;;21.08;63.34
74045;BME280;62389;51.412;5.436;2023-07-08T07:56:35;101440.19;;;21.12;64.59
74045;BME280;62389;51.412;5.436;2023-07-08T07:59:01;101444.19;;;21.18;62.62
74045;BME280;62389;51.412;5.436;2023-07-08T08:01:26;101442.75;;;21.25;62.79
74045;BME280;62389;51.412;5.436;2023-07-08T08:03:51;101436.31;;;21.28;64.20
74045;BME280;62389;51.412;5.436;2023-07-08T08:06:17;101439.25;;;21.36;62.77
74045;BME280;62389;51.412;5.436;2023-07-08T08:08:44;101444.09;;;21.42;63.39
74045;BME280;62389;51.412;5.436;2023-07-08T08:11:10;101447.84;;;21.51;63.37
74045;BME280;62389;51.412;5.436;2023-07-08T08:13:36;101446.50;;;21.56;63.05
74045;BME280;62389;51.412;5.436;2023-07-08T08:16:01;101450.59;;;21.60;64.44
74045;BME280;62389;51.412;5.436;2023-07-08T08:18:27;101458.09;;;21.66;64.68
74045;BME280;62389;51.412;5.436;2023-07-08T08:20:52;101450.34;;;21.75;64.32
74045;BME280;62389;51.412;5.436;2023-07-08T08:23:17;101454.19;;;21.82;64.98
74045;BME280;62389;51.412;5.436;2023-07-08T08:25:43;101450.16;;;21.87;64.75
74045;BME280;62389;51.412;5.436;2023-07-08T08:28:08;101460.94;;;21.97;63.62
74045;BME280;62389;51.412;5.436;2023-07-08T08:30:34;101458.50;;;22.05;63.34
74045;BME280;62389;51.412;5.436;2023-07-08T08:32:59;101462.22;;;22.14;63.42
74045;BME280;62389;51.412;5.436;2023-07-08T08:35:26;101464.72;;;22.27;62.31
74045;BME280;62389;51.412;5.436;2023-07-08T08:37:52;101471.97;;;22.36;62.55
74045;BME280;62389;51.412;5.436;2023-07-08T08:40:19;101465.59;;;22.48;60.51
74045;BME280;62389;51.412;5.436;2023-07-08T08:42:58;101464.13;;;22.55;62.53
74045;BME280;62389;51.412;5.436;2023-07-08T08:45:27;101463.53;;;22.72;61.77
74045;BME280;62389;51.412;5.436;2023-07-08T08:48:02;101467.09;;;22.83;62.78
74045;BME280;62389;51.412;5.436;2023-07-08T08:50:50;101474.09;;;22.95;60.63
74045;BME280;62389;51.412;5.436;2023-07-08T08:53:17;101468.38;;;23.09;61.16
74045;BME280;62389;51.412;5.436;2023-07-08T08:55:51;101479.44;;;23.25;61.60
74045;BME280;62389;51.412;5.436;2023-07-08T09:00:55;101479.06;;;23.70;57.39
74045;BME280;62389;51.412;5.436;2023-07-08T09:03:47;101476.56;;;23.88;58.22
74045;BME280;62389;51.412;5.436;2023-07-08T09:06:28;101477.31;;;24.00;57.77
74045;BME280;62389;51.412;5.436;2023-07-08T09:08:55;101460.72;;;24.16;55.87
74045;BME280;62389;51.412;5.436;2023-07-08T09:11:39;101460.03;;;24.52;54.57
74045;BME280;62389;51.412;5.436;2023-07-08T09:14:26;101449.91;;;25.13;52.94
74045;BME280;62389;51.412;5.436;2023-07-08T09:19:25;101453.75;;;26.98;48.28
74045;BME280;62389;51.412;5.436;2023-07-08T09:22:03;101444.75;;;27.92;48.34
74045;BME280;62389;51.412;5.436;2023-07-08T09:24:45;101453.31;;;28.85;46.26
74045;BME280;62389;51.412;5.436;2023-07-08T09:27:13;101451.03;;;29.69;42.80
74045;BME280;62389;51.412;5.436;2023-07-08T09:29:39;101451.72;;;30.40;41.21
74045;BME280;62389;51.412;5.436;2023-07-08T09:32:19;101443.63;;;31.22;43.44
74045;BME280;62389;51.412;5.436;2023-07-08T09:34:49;101433.50;;;32.18;37.97
74045;BME280;62389;51.412;5.436;2023-07-08T09:37:24;101435.44;;;33.08;38.24
74045;BME280;62389;51.412;5.436;2023-07-08T09:39:52;101432.63;;;33.91;33.52
74045;BME280;62389;51.412;5.436;2023-07-08T09:42:18;101437.28;;;34.70;32.23
74045;BME280;62389;51.412;5.436;2023-07-08T09:44:45;101428.66;;;34.99;30.29
74045;BME280;62389;51.412;5.436;2023-07-08T09:47:26;101437.06;;;34.65;32.43
74045;BME280;62389;51.412;5.436;2023-07-08T09:49:53;101438.06;;;33.84;30.71
74045;BME280;62389;51.412;5.436;2023-07-08T09:52:19;101438.63;;;33.60;32.29
74045;BME280;62389;51.412;5.436;2023-07-08T09:54:45;101436.56;;;33.88;31.29
74045;BME280;62389;51.412;5.436;2023-07-08T09:59:46;101444.72;;;32.92;33.34
74045;BME280;62389;51.412;5.436;2023-07-08T10:05:09;101445.50;;;32.09;35.87
74045;BME280;62389;51.412;5.436;2023-07-08T10:07:36;101447.84;;;31.76;34.90
74045;BME280;62389;51.412;5.436;2023-07-08T10:10:06;101442.53;;;31.31;35.72
74045;BME280;62389;51.412;5.436;2023-07-08T10:12:35;101441.78;;;31.08;36.39
74045;BME280;62389;51.412;5.436;2023-07-08T10:15:12;101430.31;;;30.91;35.98
74045;BME280;62389;51.412;5.436;2023-07-08T10:17:40;101427.63;;;30.76;36.48
74045;BME280;62389;51.412;5.436;2023-07-08T10:20:13;101431.91;;;30.71;37.79
74045;BME280;62389;51.412;5.436;2023-07-08T10:23:16;101438.13;;;30.71;38.94
74045;BME280;62389;51.412;5.436;2023-07-08T10:26:00;101440.63;;;30.58;36.84
74045;BME280;62389;51.412;5.436;2023-07-08T10:31:37;101442.25;;;30.44;38.61
74045;BME280;62389;51.412;5.436;2023-07-08T10:36:57;101445.69;;;30.15;35.73
74045;BME280;62389;51.412;5.436;2023-07-08T10:45:32;101455.59;;;30.23;36.22
74045;BME280;62389;51.412;5.436;2023-07-08T10:48:19;101444.97;;;30.21;39.08
74045;BME280;62389;51.412;5.436;2023-07-08T10:56:01;101442.81;;;30.16;37.03
74045;BME280;62389;51.412;5.436;2023-07-08T11:01:19;101439.56;;;30.21;39.43
74045;BME280;62389;51.412;5.436;2023-07-08T11:06:29;101438.84;;;30.27;34.55
74045;BME280;62389;51.412;5.436;2023-07-08T11:09:02;101441.53;;;30.27;36.31
74045;BME280;62389;51.412;5.436;2023-07-08T11:14:15;101431.72;;;30.34;33.89
74045;BME280;62389;51.412;5.436;2023-07-08T11:16:52;101438.44;;;30.38;36.52
74045;BME280;62389;51.412;5.436;2023-07-08T11:19:27;101436.38;;;30.40;34.59
74045;BME280;62389;51.412;5.436;2023-07-08T11:21:59;101441.22;;;30.45;35.24
74045;BME280;62389;51.412;5.436;2023-07-08T11:27:08;101437.69;;;30.44;37.58
74045;BME280;62389;51.412;5.436;2023-07-08T11:29:47;101433.06;;;30.53;36.73
74045;BME280;62389;51.412;5.436;2023-07-08T11:32:19;101425.59;;;30.55;34.14
74045;BME280;62389;51.412;5.436;2023-07-08T11:34:48;101427.75;;;30.60;34.99
74045;BME280;62389;51.412;5.436;2023-07-08T11:37:15;101415.72;;;30.62;34.77
74045;BME280;62389;51.412;5.436;2023-07-08T11:39:44;101420.97;;;30.64;33.66
74045;BME280;62389;51.412;5.436;2023-07-08T11:42:20;101419.59;;;30.68;35.86
74045;BME280;62389;51.412;5.436;2023-07-08T11:44:57;101423.59;;;30.72;35.37
74045;BME280;62389;51.412;5.436;2023-07-08T11:47:33;101409.09;;;30.73;35.13
74045;BME280;62389;51.412;5.436;2023-07-08T11:50:00;101418.47;;;30.77;37.12
74045;BME280;62389;51.412;5.436;2023-07-08T11:52:29;101417.94;;;30.82;36.50
74045;BME280;62389;51.412;5.436;2023-07-08T11:55:00;101422.13;;;30.84;34.81
74045;BME280;62389;51.412;5.436;2023-07-08T11:57:28;101418.59;;;30.84;36.60
74045;BME280;62389;51.412;5.436;2023-07-08T12:02:53;101420.25;;;31.00;34.69
74045;BME280;62389;51.412;5.436;2023-07-08T12:05:30;101406.84;;;31.06;35.21
74045;BME280;62389;51.412;5.436;2023-07-08T12:07:56;101414.03;;;31.14;35.52
74045;BME280;62389;51.412;5.436;2023-07-08T12:10:34;101411.97;;;31.31;34.24
74045;BME280;62389;51.412;5.436;2023-07-08T12:13:01;101412.44;;;31.34;33.74
74045;BME280;62389;51.412;5.436;2023-07-08T12:15:30;101395.66;;;31.39;31.45
74045;BME280;62389;51.412;5.436;2023-07-08T12:18:22;101400.34;;;31.52;32.32
74045;BME280;62389;51.412;5.436;2023-07-08T12:20:49;101407.31;;;31.61;35.62
74045;BME280;62389;51.412;5.436;2023-07-08T12:23:20;101402.53;;;31.63;34.51
74045;BME280;62389;51.412;5.436;2023-07-08T12:25:46;101400.44;;;31.80;31.29
74045;BME280;62389;51.412;5.436;2023-07-08T12:28:12;101397.72;;;31.94;30.03
74045;BME280;62389;51.412;5.436;2023-07-08T12:30:39;101393.19;;;32.02;33.23
74045;BME280;62389;51.412;5.436;2023-07-08T12:33:11;101396.81;;;32.09;31.48
74045;BME280;62389;51.412;5.436;2023-07-08T12:35:37;101398.31;;;32.18;31.84
74045;BME280;62389;51.412;5.436;2023-07-08T12:38:13;101394.84;;;32.24;33.70
74045;BME280;62389;51.412;5.436;2023-07-08T12:40:42;101389.28;;;32.32;33.90
74045;BME280;62389;51.412;5.436;2023-07-08T12:43:11;101384.06;;;32.31;35.02
74045;BME280;62389;51.412;5.436;2023-07-08T12:45:37;101374.66;;;32.27;38.01
74045;BME280;62389;51.412;5.436;2023-07-08T12:48:02;101387.34;;;32.26;37.99
74045;BME280;62389;51.412;5.436;2023-07-08T12:50:28;101386.53;;;32.26;36.94
74045;BME280;62389;51.412;5.436;2023-07-08T12:52:54;101376.41;;;32.34;30.85
74045;BME280;62389;51.412;5.436;2023-07-08T12:55:19;101374.34;;;32.36;31.72
74045;BME280;62389;51.412;5.436;2023-07-08T12:57:47;101380.09;;;32.55;32.69
74045;BME280;62389;51.412;5.436;2023-07-08T13:00:30;101383.53;;;32.70;32.07
74045;BME280;62389;51.412;5.436;2023-07-08T13:03:04;101386.88;;;32.72;31.64
74045;BME280;62389;51.412;5.436;2023-07-08T13:05:30;101383.56;;;32.77;32.12
74045;BME280;62389;51.412;5.436;2023-07-08T13:07:57;101384.84;;;32.81;31.75
74045;BME280;62389;51.412;5.436;2023-07-08T13:10:25;101384.84;;;32.81;33.27
74045;BME280;62389;51.412;5.436;2023-07-08T13:12:57;101387.34;;;32.82;33.67
74045;BME280;62389;51.412;5.436;2023-07-08T13:15:29;101382.13;;;33.22;32.71
74045;BME280;62389;51.412;5.436;2023-07-08T13:17:56;101382.34;;;34.28;33.38
74045;BME280;62389;51.412;5.436;2023-07-08T13:20:22;101383.94;;;35.40;30.30
74045;BME280;62389;51.412;5.436;2023-07-08T13:22:52;101385.41;;;36.06;26.50
74045;BME280;62389;51.412;5.436;2023-07-08T13:25:20;101382.84;;;36.11;26.58
74045;BME280;62389;51.412;5.436;2023-07-08T13:28:01;101391.94;;;35.67;27.03
74045;BME280;62389;51.412;5.436;2023-07-08T13:30:29;101377.81;;;35.07;28.68
74045;BME280;62389;51.412;5.436;2023-07-08T13:32:57;101384.19;;;34.67;28.31
74045;BME280;62389;51.412;5.436;2023-07-08T13:35:35;101381.50;;;34.34;29.74
74045;BME280;62389;51.412;5.436;2023-07-08T13:38:02;101386.94;;;34.08;26.83
74045;BME280;62389;51.412;5.436;2023-07-08T13:40:31;101390.03;;;33.91;27.10
74045;BME280;62389;51.412;5.436;2023-07-08T13:42:57;101381.66;;;33.66;26.32